createdAt,value
2022-10-02T00:01:49.996Z,11.05
2022-10-02T00:07:03.249Z,11.06
2022-10-02T00:12:14.261Z,11.05
2022-10-02T00:17:23.466Z,11.02
2022-10-02T00:22:46.816Z,10.99
2022-10-02T00:28:08.097Z,10.98
2022-10-02T00:33:23.906Z,10.94
2022-10-02T00:38:44.954Z,10.92
2022-10-02T00:44:04.263Z,10.94
2022-10-02T00:49:37.433Z,10.95
2022-10-02T00:55:16.832Z,10.93
2022-10-02T01:00:25.996Z,10.95
2022-10-02T01:05:34.314Z,10.98
2022-10-02T01:10:41.764Z,11.02
2022-10-02T01:15:52.932Z,11.02
2022-10-02T01:20:59.389Z,11.03
2022-10-02T01:26:06.125Z,11.04
2022-10-02T01:31:14.715Z,11.03
2022-10-02T01:36:23.079Z,11.02
2022-10-02T01:41:28.911Z,11.02
2022-10-02T01:46:41.408Z,11.04
2022-10-02T01:52:10.021Z,11.07
2022-10-02T01:57:25.268Z,11.04
2022-10-02T02:02:42.389Z,11.04
2022-10-02T02:07:58.140Z,11.08
2022-10-02T02:13:07.833Z,11.10
2022-10-02T02:18:20.701Z,11.08
2022-10-02T02:23:31.826Z,11.08
2022-10-02T02:28:38.170Z,11.07
2022-10-02T02:33:48.415Z,11.03
2022-10-02T02:39:00.235Z,10.99
2022-10-02T02:44:11.219Z,10.98
2022-10-02T02:49:17.538Z,11.00
2022-10-02T02:54:29.757Z,11.01
2022-10-02T02:59:38.347Z,10.94
2022-10-02T03:04:44.274Z,10.83
2022-10-02T03:10:01.582Z,10.75
2022-10-02T03:15:22.974Z,10.74
2022-10-02T03:20:36.686Z,10.66
2022-10-02T03:25:48.678Z,10.57
2022-10-02T03:30:57.691Z,10.52
2022-10-02T03:36:04.363Z,10.51
2022-10-02T03:41:10.277Z,10.55
2022-10-02T03:46:16.085Z,10.60
2022-10-02T03:51:22.120Z,10.69
2022-10-02T03:56:36.950Z,10.74
2022-10-02T04:01:49.140Z,10.77
2022-10-02T04:07:01.005Z,10.83
2022-10-02T04:12:12.401Z,10.90
2022-10-02T04:17:23.950Z,10.95
2022-10-02T04:22:39.219Z,10.97
2022-10-02T04:27:49.518Z,11.01
2022-10-02T04:32:56.757Z,11.06
2022-10-02T04:38:29.102Z,11.11
2022-10-02T04:43:53.922Z,11.10
2022-10-02T04:49:16.624Z,11.10
2022-10-02T04:54:46.240Z,11.13
2022-10-02T05:00:07.479Z,11.13
2022-10-02T05:05:40.661Z,11.11
2022-10-02T05:11:04.995Z,11.12
2022-10-02T05:16:28.360Z,11.13
2022-10-02T05:21:53.117Z,11.19
2022-10-02T05:27:17.631Z,11.23
2022-10-02T05:32:41.217Z,11.27
2022-10-02T05:37:59.613Z,11.34
2022-10-02T05:43:10.422Z,11.38
2022-10-02T05:48:23.208Z,11.42
2022-10-02T05:53:35.180Z,11.48
2022-10-02T05:58:50.781Z,11.54
2022-10-02T06:04:02.926Z,11.61
2022-10-02T06:09:19.559Z,11.67
2022-10-02T06:14:32.181Z,11.74
2022-10-02T06:19:44.203Z,11.78
2022-10-02T06:25:20.009Z,11.78
2022-10-02T06:30:26.579Z,11.91
2022-10-02T06:35:54.413Z,12.01
2022-10-02T06:41:11.739Z,12.08
2022-10-02T06:46:28.119Z,12.05
2022-10-02T06:51:45.934Z,12.02
2022-10-02T06:57:07.104Z,12.05
2022-10-02T07:07:53.792Z,12.02
2022-10-02T07:13:14.309Z,12.14
2022-10-02T07:18:32.727Z,12.33
2022-10-02T07:24:02.386Z,12.38
2022-10-02T07:29:37.120Z,12.40
2022-10-02T07:34:51.916Z,12.49
2022-10-02T07:40:21.848Z,12.56
2022-10-02T07:45:36.906Z,12.74
2022-10-02T07:50:56.460Z,13.03
2022-10-02T07:56:02.648Z,13.22
2022-10-02T08:01:16.665Z,13.33
2022-10-02T08:06:37.839Z,13.43
2022-10-02T08:11:49.679Z,13.51
2022-10-02T08:16:58.088Z,13.48
2022-10-02T08:22:10.293Z,13.35
2022-10-02T08:27:19.579Z,13.23
2022-10-02T08:32:34.850Z,13.23
2022-10-02T08:37:57.816Z,13.31
2022-10-02T08:43:45.423Z,13.33
2022-10-02T08:49:31.311Z,13.31
2022-10-02T08:55:12.537Z,13.35
2022-10-02T09:00:35.881Z,13.38
2022-10-02T09:06:15.703Z,13.72
2022-10-02T09:12:11.198Z,14.26
2022-10-02T09:17:35.880Z,15.18
2022-10-02T09:23:12.550Z,15.56
2022-10-02T09:29:00.098Z,15.80
2022-10-02T09:34:36.137Z,15.94
2022-10-02T09:39:59.855Z,15.66
2022-10-02T09:45:36.669Z,15.69
2022-10-02T09:51:10.767Z,15.95
2022-10-02T09:56:49.752Z,16.05
2022-10-02T10:02:27.538Z,16.11
2022-10-02T10:08:06.650Z,17.60
2022-10-02T10:13:46.985Z,19.98
2022-10-02T10:19:27.283Z,21.82
2022-10-02T10:24:56.422Z,22.57
2022-10-02T10:30:21.392Z,21.21
2022-10-02T10:35:40.366Z,19.43
2022-10-02T10:41:05.599Z,17.89
2022-10-02T10:46:42.783Z,16.95
2022-10-02T10:51:55.361Z,18.00
2022-10-02T10:57:11.311Z,19.02
2022-10-02T11:02:54.767Z,19.08
2022-10-02T11:08:24.448Z,19.04
2022-10-02T11:13:46.742Z,18.78
2022-10-02T11:19:20.574Z,18.43
2022-10-02T11:24:44.194Z,18.73
2022-10-02T11:30:20.673Z,19.47
2022-10-02T11:35:35.872Z,19.13
2022-10-02T11:40:58.001Z,18.22
2022-10-02T11:46:36.507Z,17.65
2022-10-02T11:52:00.098Z,17.44
2022-10-02T11:57:25.900Z,17.42
2022-10-02T12:02:38.710Z,17.34
2022-10-02T12:07:55.575Z,17.04
2022-10-02T12:13:24.673Z,16.89
2022-10-02T12:18:44.395Z,17.09
2022-10-02T12:24:14.614Z,17.15
2022-10-02T12:29:31.492Z,17.51
2022-10-02T12:34:51.658Z,17.84
2022-10-02T12:40:10.146Z,18.38
2022-10-02T12:45:33.421Z,18.80
2022-10-02T12:51:07.359Z,18.62
2022-10-02T12:56:43.889Z,18.14
2022-10-02T13:02:49.173Z,17.64
2022-10-02T13:08:25.519Z,16.99
2022-10-02T13:13:54.301Z,16.49
2022-10-02T13:19:15.918Z,16.13
2022-10-02T13:24:43.208Z,16.02
2022-10-02T13:30:01.314Z,15.88
2022-10-02T13:35:24.952Z,15.76
2022-10-02T13:40:38.485Z,15.65
2022-10-02T13:45:53.909Z,15.60
2022-10-02T13:51:05.368Z,15.50
2022-10-02T13:56:20.810Z,15.55
2022-10-02T14:01:37.164Z,15.92
2022-10-02T14:06:49.010Z,15.94
2022-10-02T14:12:11.509Z,15.77
2022-10-02T14:17:26.499Z,15.72
2022-10-02T14:22:43.274Z,15.78
2022-10-02T14:28:25.591Z,15.65
2022-10-02T14:33:42.157Z,15.48
2022-10-02T14:39:02.113Z,15.32
2022-10-02T14:44:35.543Z,15.27
2022-10-02T14:50:13.896Z,15.36
2022-10-02T14:55:32.626Z,15.37
2022-10-02T15:00:50.066Z,15.35
2022-10-02T15:06:11.805Z,15.42
2022-10-02T15:11:30.068Z,15.49
2022-10-02T15:17:06.184Z,15.43
2022-10-02T15:22:20.348Z,15.19
2022-10-02T15:27:32.334Z,14.84
2022-10-02T15:33:07.472Z,14.47
2022-10-02T15:38:38.953Z,14.08
2022-10-02T15:43:53.620Z,13.77
2022-10-02T15:49:04.688Z,13.52
2022-10-02T15:54:24.836Z,13.30
2022-10-02T15:59:49.732Z,13.07
2022-10-02T16:05:09.107Z,12.79
2022-10-02T16:10:24.592Z,12.45
2022-10-02T16:15:47.100Z,12.19
2022-10-02T16:21:14.003Z,12.04
2022-10-02T16:26:35.158Z,11.97
2022-10-02T16:31:59.962Z,11.94
2022-10-02T16:37:10.296Z,11.84
2022-10-02T16:42:32.308Z,11.69
2022-10-02T16:47:48.008Z,11.59
2022-10-02T16:52:58.857Z,11.54
2022-10-02T16:58:21.947Z,11.45
2022-10-02T17:03:34.501Z,11.32
2022-10-02T17:08:47.882Z,11.14
2022-10-02T17:14:11.919Z,11.05
2022-10-02T17:19:25.929Z,10.94
2022-10-02T17:24:40.695Z,10.87
2022-10-02T17:29:58.215Z,10.74
2022-10-02T17:35:10.252Z,10.58
2022-10-02T17:40:20.985Z,10.48
2022-10-02T17:45:37.129Z,10.38
2022-10-02T17:50:55.332Z,10.34
2022-10-02T17:56:44.189Z,10.33
2022-10-02T18:02:00.812Z,10.29
2022-10-02T18:07:29.651Z,10.25
2022-10-02T18:13:06.382Z,10.19
2022-10-02T18:18:30.087Z,10.11
2022-10-02T18:24:00.687Z,10.07
2022-10-02T18:29:26.150Z,10.09
2022-10-02T18:34:54.945Z,10.01
2022-10-02T18:40:22.354Z,9.98
2022-10-02T18:45:40.779Z,10.00
2022-10-02T18:51:04.592Z,10.06
2022-10-02T18:56:15.105Z,10.09
2022-10-02T19:01:52.945Z,10.11
2022-10-02T19:07:07.299Z,10.24
2022-10-02T19:12:22.216Z,10.43
2022-10-02T19:17:34.790Z,10.57
2022-10-02T19:22:41.161Z,10.67
2022-10-02T19:27:54.003Z,10.77
2022-10-02T19:33:07.645Z,10.89
2022-10-02T19:38:25.019Z,11.01
2022-10-02T19:43:34.481Z,11.08
2022-10-02T19:48:41.380Z,11.13
2022-10-02T19:53:53.395Z,11.12
2022-10-02T19:59:04.671Z,11.03
2022-10-02T20:04:14.357Z,10.94
2022-10-02T20:09:24.802Z,10.87
2022-10-02T20:14:37.076Z,10.80
2022-10-02T20:19:51.700Z,10.72
2022-10-02T20:25:03.586Z,10.68
2022-10-02T20:30:16.782Z,10.65
2022-10-02T20:35:34.754Z,10.57
2022-10-02T20:40:47.017Z,10.44
2022-10-02T20:46:05.508Z,10.34
2022-10-02T20:51:19.331Z,10.31
2022-10-02T20:56:38.335Z,10.25
2022-10-02T21:01:54.644Z,10.21
2022-10-02T21:07:24.141Z,10.23
2022-10-02T21:13:19.278Z,10.26
2022-10-02T21:18:52.497Z,10.25
2022-10-02T21:24:28.916Z,10.21
2022-10-02T21:30:02.338Z,10.17
2022-10-02T21:35:16.838Z,10.15
2022-10-02T21:41:12.660Z,10.12
2022-10-02T21:46:47.742Z,10.08
2022-10-02T21:52:18.283Z,10.00
2022-10-02T21:58:03.262Z,9.92
2022-10-02T22:03:45.650Z,9.85
2022-10-02T22:09:05.360Z,9.74
2022-10-02T22:14:14.896Z,9.64
2022-10-02T22:19:48.483Z,9.53
2022-10-02T22:25:14.014Z,9.48
2022-10-02T22:30:26.062Z,9.50
2022-10-02T22:35:47.672Z,9.50
2022-10-02T22:40:58.025Z,9.46
2022-10-02T22:46:09.793Z,9.45
2022-10-02T22:51:20.434Z,9.47
2022-10-02T22:56:32.025Z,9.46
2022-10-02T23:01:45.522Z,9.48
2022-10-02T23:06:58.389Z,9.48
2022-10-02T23:12:12.766Z,9.51
2022-10-02T23:17:27.148Z,9.53
2022-10-02T23:22:37.881Z,9.54
2022-10-02T23:27:54.675Z,9.59
2022-10-02T23:33:05.178Z,9.62
2022-10-02T23:38:23.290Z,9.65
2022-10-02T23:43:35.321Z,9.68
2022-10-02T23:48:42.194Z,9.75
2022-10-02T23:54:15.877Z,9.82
2022-10-02T23:59:44.173Z,9.85
